createdAt,value
2017-10-23T00:00:26.281Z,12.52
2017-10-23T00:01:40.438Z,12.42
2017-10-23T00:02:42.318Z,12.34
2017-10-23T00:03:44.205Z,12.29
2017-10-23T00:04:46.087Z,12.17
2017-10-23T00:05:47.911Z,12.21
2017-10-23T00:06:49.731Z,12.12
2017-10-23T00:07:51.611Z,11.99
2017-10-23T00:08:53.493Z,11.94
2017-10-23T00:09:55.373Z,11.83
2017-10-23T00:11:09.528Z,11.94
2017-10-23T00:12:11.406Z,11.76
2017-10-23T00:13:13.289Z,11.65
2017-10-23T00:14:15.174Z,11.69
2017-10-23T00:15:16.996Z,11.62
2017-10-23T00:16:18.815Z,11.62
2017-10-23T00:17:20.699Z,11.62
2017-10-23T00:18:22.576Z,11.57
2017-10-23T00:19:24.455Z,11.57
2017-10-23T00:20:38.610Z,11.42
2017-10-23T00:21:40.489Z,11.46
2017-10-23T00:22:42.374Z,11.55
2017-10-23T00:23:44.256Z,11.55
2017-10-23T00:24:46.077Z,11.69
2017-10-23T00:25:47.896Z,11.65
2017-10-23T00:26:49.777Z,11.67
2017-10-23T00:27:51.669Z,11.73
2017-10-23T00:28:53.545Z,11.72
2017-10-23T00:30:07.750Z,11.88
2017-10-23T00:31:09.621Z,11.94
2017-10-23T00:32:11.503Z,12.01
2017-10-23T00:33:13.381Z,12.12
2017-10-23T00:34:15.201Z,12.13
2017-10-23T00:35:17.032Z,12.20
2017-10-23T00:36:18.912Z,12.10
2017-10-23T00:37:20.787Z,12.16
2017-10-23T00:38:22.668Z,12.20
2017-10-23T00:39:36.825Z,12.21
2017-10-23T00:40:38.701Z,12.31
2017-10-23T00:41:40.580Z,12.32
2017-10-23T00:42:42.468Z,12.35
2017-10-23T00:43:44.291Z,12.32
2017-10-23T00:44:46.115Z,12.46
2017-10-23T00:45:47.998Z,12.35
2017-10-23T00:46:49.871Z,12.46
2017-10-23T00:47:51.749Z,12.42
2017-10-23T00:49:05.954Z,12.54
2017-10-23T00:50:07.829Z,12.50
2017-10-23T00:51:09.709Z,12.47
2017-10-23T00:52:11.587Z,12.52
2017-10-23T00:53:13.410Z,12.52
2017-10-23T00:54:15.233Z,12.56
2017-10-23T00:55:17.113Z,12.54
2017-10-23T00:56:18.990Z,12.64
2017-10-23T00:57:20.878Z,12.67
2017-10-23T00:58:35.082Z,12.62
2017-10-23T00:59:36.959Z,12.49
2017-10-23T01:00:38.845Z,12.39
2017-10-23T01:01:40.719Z,12.34
2017-10-23T01:02:42.538Z,12.35
2017-10-23T01:03:44.358Z,12.31
2017-10-23T01:04:46.244Z,12.31
2017-10-23T01:05:48.119Z,12.32
2017-10-23T01:06:50.007Z,12.32
2017-10-23T01:08:04.163Z,12.37
2017-10-23T01:09:06.047Z,12.37
2017-10-23T01:10:07.928Z,12.31
2017-10-23T01:11:09.807Z,12.19
2017-10-23T01:12:11.630Z,12.14
2017-10-23T01:13:13.452Z,12.28
2017-10-23T01:14:15.333Z,12.31
2017-10-23T01:15:17.211Z,12.46
2017-10-23T01:16:19.092Z,12.39
2017-10-23T01:17:33.251Z,12.56
2017-10-23T01:18:35.130Z,12.54
2017-10-23T01:19:37.010Z,12.60
2017-10-23T01:20:38.891Z,12.60
2017-10-23T01:21:40.713Z,12.67
2017-10-23T01:22:42.537Z,12.65
2017-10-23T01:23:44.410Z,12.70
2017-10-23T01:24:46.287Z,12.62
2017-10-23T01:25:48.176Z,12.65
2017-10-23T01:27:02.316Z,12.71
2017-10-23T01:28:04.193Z,12.65
2017-10-23T01:29:06.069Z,12.71
2017-10-23T01:30:07.944Z,12.62
2017-10-23T01:31:09.770Z,12.56
2017-10-23T01:32:11.590Z,12.42
2017-10-23T01:33:13.469Z,12.42
2017-10-23T01:34:15.346Z,12.35
2017-10-23T01:35:17.219Z,12.42
2017-10-23T01:36:31.372Z,12.42
2017-10-23T01:37:33.251Z,12.52
2017-10-23T01:38:35.127Z,12.46
2017-10-23T01:39:37.003Z,12.39
2017-10-23T01:40:38.823Z,12.45
2017-10-23T01:41:40.648Z,12.31
2017-10-23T01:42:42.521Z,12.34
2017-10-23T01:43:44.404Z,12.31
2017-10-23T01:44:46.276Z,12.32
2017-10-23T01:46:00.494Z,12.17
2017-10-23T01:47:02.368Z,12.21
2017-10-23T01:48:04.247Z,12.13
2017-10-23T01:49:06.138Z,12.09
2017-10-23T01:50:07.958Z,12.04
2017-10-23T01:51:09.777Z,12.07
2017-10-23T01:52:11.653Z,12.10
2017-10-23T01:53:13.528Z,12.07
2017-10-23T01:54:15.416Z,12.13
2017-10-23T01:55:29.579Z,12.10
2017-10-23T01:56:31.456Z,12.04
2017-10-23T01:57:33.335Z,12.01
2017-10-23T01:58:35.213Z,12.05
2017-10-23T01:59:37.037Z,11.90
2017-10-23T02:00:38.850Z,11.94
2017-10-23T02:01:40.729Z,11.99
2017-10-23T02:02:42.605Z,12.16
2017-10-23T02:03:44.480Z,12.09
2017-10-23T02:04:58.632Z,12.28
2017-10-23T02:06:00.508Z,12.38
2017-10-23T02:07:02.386Z,12.34
2017-10-23T02:08:04.273Z,12.39
2017-10-23T02:09:06.096Z,12.53
2017-10-23T02:10:07.916Z,12.50
2017-10-23T02:11:09.792Z,12.57
2017-10-23T02:12:11.671Z,12.60
2017-10-23T02:13:13.547Z,12.64
2017-10-23T02:14:27.710Z,12.64
2017-10-23T02:15:29.587Z,12.67
2017-10-23T02:16:31.474Z,12.57
2017-10-23T02:17:33.351Z,12.56
2017-10-23T02:18:35.183Z,12.56
2017-10-23T02:19:37.001Z,12.57
2017-10-23T02:20:38.880Z,12.53
2017-10-23T02:21:40.755Z,12.49
2017-10-23T02:22:42.633Z,12.57
2017-10-23T02:23:56.788Z,12.54
2017-10-23T02:24:58.674Z,12.52
2017-10-23T02:26:00.552Z,12.41
2017-10-23T02:27:02.441Z,12.42
2017-10-23T02:28:04.262Z,12.37
2017-10-23T02:29:06.080Z,12.31
2017-10-23T02:30:07.958Z,12.35
2017-10-23T02:31:09.865Z,12.29
2017-10-23T02:32:11.733Z,12.20
2017-10-23T02:33:25.929Z,12.13
2017-10-23T02:34:27.806Z,12.13
2017-10-23T02:35:29.685Z,12.13
2017-10-23T02:36:31.563Z,12.07
2017-10-23T02:37:33.383Z,12.07
2017-10-23T02:38:35.200Z,11.90
2017-10-23T02:39:37.077Z,11.85
2017-10-23T02:40:38.957Z,11.76
2017-10-23T02:41:40.834Z,11.90
2017-10-23T02:42:54.992Z,11.83
2017-10-23T02:43:56.892Z,11.83
2017-10-23T02:44:58.750Z,11.62
2017-10-23T02:46:00.626Z,11.69
2017-10-23T02:47:02.446Z,11.57
2017-10-23T02:48:04.264Z,11.57
2017-10-23T02:49:06.142Z,11.55
2017-10-23T02:50:08.019Z,11.54
2017-10-23T02:51:09.894Z,11.44
2017-10-23T02:52:24.057Z,11.49
2017-10-23T02:53:25.935Z,11.35
2017-10-23T02:54:27.813Z,11.27
2017-10-23T02:55:29.704Z,11.25
2017-10-23T02:56:31.524Z,11.27
2017-10-23T02:57:33.342Z,11.11
2017-10-23T02:58:35.224Z,11.15
2017-10-23T02:59:37.098Z,11.14
2017-10-23T03:00:38.987Z,11.18
2017-10-23T03:01:53.143Z,11.19
2017-10-23T03:02:55.019Z,11.09
2017-10-23T03:03:56.897Z,11.07
2017-10-23T03:04:58.778Z,11.06
2017-10-23T03:06:00.598Z,11.06
2017-10-23T03:07:02.420Z,11.14
2017-10-23T03:08:04.300Z,11.19
2017-10-23T03:09:06.174Z,11.24
2017-10-23T03:10:08.050Z,11.27
2017-10-23T03:11:22.202Z,11.19
2017-10-23T03:12:24.079Z,11.24
2017-10-23T03:13:25.956Z,11.27
2017-10-23T03:14:27.834Z,11.22
2017-10-23T03:15:29.649Z,11.19
2017-10-23T03:16:31.469Z,11.25
2017-10-23T03:17:33.347Z,11.19
2017-10-23T03:18:35.225Z,11.36
2017-10-23T03:19:37.103Z,11.37
2017-10-23T03:20:51.256Z,11.40
2017-10-23T03:21:53.132Z,11.28
2017-10-23T03:22:55.009Z,11.17
2017-10-23T03:23:56.898Z,11.35
2017-10-23T03:24:58.717Z,11.36
2017-10-23T03:26:00.535Z,11.36
2017-10-23T03:27:02.419Z,11.35
2017-10-23T03:28:04.293Z,11.28
2017-10-23T03:29:06.181Z,11.35
2017-10-23T03:30:20.348Z,11.33
2017-10-23T03:31:22.221Z,11.21
2017-10-23T03:32:24.102Z,11.24
2017-10-23T03:33:25.980Z,11.10
2017-10-23T03:34:27.800Z,11.15
2017-10-23T03:35:29.618Z,11.06
2017-10-23T03:36:31.457Z,11.07
2017-10-23T03:37:33.274Z,11.17
2017-10-23T03:38:35.111Z,11.21
2017-10-23T03:39:49.264Z,11.25
2017-10-23T03:40:51.141Z,11.19
2017-10-23T03:41:53.024Z,11.27
2017-10-23T03:42:54.901Z,11.24
2017-10-23T03:43:56.721Z,11.27
2017-10-23T03:44:58.539Z,11.28
2017-10-23T03:46:00.419Z,11.28
2017-10-23T03:47:02.297Z,11.19
2017-10-23T03:48:04.173Z,11.21
2017-10-23T03:49:18.326Z,11.24
2017-10-23T03:50:20.240Z,10.99
2017-10-23T03:51:22.142Z,10.99
2017-10-23T03:52:23.996Z,11.00
2017-10-23T03:53:25.816Z,11.03
2017-10-23T03:54:27.633Z,10.89
2017-10-23T03:55:29.509Z,10.88
2017-10-23T03:56:31.388Z,10.86
2017-10-23T03:57:33.265Z,10.88
2017-10-23T03:58:47.418Z,10.79
2017-10-23T03:59:49.297Z,10.85
2017-10-23T04:00:51.174Z,10.91
2017-10-23T04:01:53.053Z,10.99
2017-10-23T04:02:54.873Z,10.88
2017-10-23T04:03:56.692Z,10.82
2017-10-23T04:04:58.570Z,10.85
2017-10-23T04:06:00.456Z,10.81
2017-10-23T04:07:02.332Z,10.79
2017-10-23T04:08:16.481Z,10.86
2017-10-23T04:09:18.358Z,10.82
2017-10-23T04:10:20.235Z,10.76
2017-10-23T04:11:22.117Z,10.84
2017-10-23T04:12:23.932Z,10.84
2017-10-23T04:13:25.751Z,10.85
2017-10-23T04:14:27.627Z,10.84
2017-10-23T04:15:29.507Z,10.82
2017-10-23T04:16:31.383Z,10.84
2017-10-23T04:17:45.542Z,10.71
2017-10-23T04:18:47.416Z,10.64
2017-10-23T04:19:49.295Z,10.56
2017-10-23T04:20:51.173Z,10.47
2017-10-23T04:21:52.999Z,10.41
2017-10-23T04:22:54.812Z,10.55
2017-10-23T04:23:56.689Z,10.47
2017-10-23T04:24:58.565Z,10.44
2017-10-23T04:26:00.439Z,10.51
2017-10-23T04:27:14.600Z,10.47
2017-10-23T04:28:16.476Z,10.41
2017-10-23T04:29:18.350Z,10.52
2017-10-23T04:30:20.238Z,10.45
2017-10-23T04:31:22.061Z,10.55
2017-10-23T04:32:23.879Z,10.53
2017-10-23T04:33:25.759Z,10.63
2017-10-23T04:34:27.633Z,10.59
2017-10-23T04:35:29.507Z,10.67
2017-10-23T04:36:43.641Z,10.74
2017-10-23T04:37:45.458Z,10.67
2017-10-23T04:38:47.343Z,10.70
2017-10-23T04:39:49.220Z,10.73
2017-10-23T04:40:51.112Z,10.68
2017-10-23T04:41:52.938Z,10.63
2017-10-23T04:42:54.754Z,10.64
2017-10-23T04:43:56.645Z,10.70
2017-10-23T04:44:58.520Z,10.59
2017-10-23T04:46:12.737Z,10.60
2017-10-23T04:47:14.613Z,10.59
2017-10-23T04:48:16.514Z,10.47
2017-10-23T04:49:18.388Z,10.45
2017-10-23T04:50:20.207Z,10.47
2017-10-23T04:51:22.024Z,10.44
2017-10-23T04:52:23.912Z,10.45
2017-10-23T04:53:25.790Z,10.44
2017-10-23T04:54:27.667Z,10.45
2017-10-23T04:55:41.868Z,10.56
2017-10-23T04:56:43.745Z,10.42
2017-10-23T04:57:45.623Z,10.42
2017-10-23T04:58:47.502Z,10.42
2017-10-23T04:59:49.361Z,10.41
2017-10-23T05:00:51.180Z,10.48
2017-10-23T05:01:52.994Z,10.51
2017-10-23T05:02:54.872Z,10.48
2017-10-23T05:03:56.753Z,10.40
2017-10-23T05:05:10.962Z,10.32
2017-10-23T05:06:12.841Z,10.25
2017-10-23T05:07:14.721Z,10.34
2017-10-23T05:08:16.607Z,10.32
2017-10-23T05:09:18.429Z,10.36
2017-10-23T05:10:20.245Z,10.33
2017-10-23T05:11:22.125Z,10.29
2017-10-23T05:12:24.005Z,10.27
2017-10-23T05:13:25.885Z,10.32
2017-10-23T05:14:40.041Z,10.41
2017-10-23T05:15:41.922Z,10.42
2017-10-23T05:16:43.804Z,10.53
2017-10-23T05:17:45.696Z,10.42
2017-10-23T05:18:47.527Z,10.48
2017-10-23T05:19:49.344Z,10.38
2017-10-23T05:20:51.226Z,10.33
2017-10-23T05:21:53.122Z,10.38
2017-10-23T05:22:54.988Z,10.30
2017-10-23T05:24:09.227Z,10.23
2017-10-23T05:25:11.104Z,10.26
2017-10-23T05:26:12.964Z,10.36
2017-10-23T05:27:14.857Z,10.36
2017-10-23T05:28:16.671Z,10.45
2017-10-23T05:29:18.489Z,10.41
2017-10-23T05:30:20.375Z,10.42
2017-10-23T05:31:22.259Z,10.53
2017-10-23T05:32:24.150Z,10.59
2017-10-23T05:33:38.302Z,10.55
2017-10-23T05:34:40.187Z,10.64
2017-10-23T05:35:42.083Z,10.63
2017-10-23T05:36:43.954Z,10.61
2017-10-23T05:37:45.776Z,10.64
2017-10-23T05:38:47.593Z,10.61
2017-10-23T05:39:49.474Z,10.68
2017-10-23T05:40:51.358Z,10.70
2017-10-23T05:41:53.252Z,10.71
2017-10-23T05:43:07.390Z,10.74
2017-10-23T05:44:09.288Z,10.64
2017-10-23T05:45:11.155Z,10.61
2017-10-23T05:46:13.039Z,10.55
2017-10-23T05:47:14.859Z,10.55
2017-10-23T05:48:16.681Z,10.55
2017-10-23T05:49:18.564Z,10.52
2017-10-23T05:50:20.445Z,10.52
2017-10-23T05:51:22.329Z,10.47
2017-10-23T05:52:36.526Z,10.59
2017-10-23T05:53:38.406Z,10.61
2017-10-23T05:54:40.299Z,10.68
2017-10-23T05:55:42.188Z,10.55
2017-10-23T05:56:44.008Z,10.42
2017-10-23T05:57:45.828Z,10.40
2017-10-23T05:58:47.709Z,10.48
2017-10-23T05:59:49.609Z,10.44
2017-10-23T06:00:51.491Z,10.52
2017-10-23T06:02:05.651Z,10.55
2017-10-23T06:03:07.534Z,10.51
2017-10-23T06:04:09.436Z,10.55
2017-10-23T06:05:11.328Z,10.61
2017-10-23T06:06:13.150Z,10.60
2017-10-23T06:07:14.974Z,10.52
2017-10-23T06:08:16.858Z,10.55
2017-10-23T06:09:18.740Z,10.53
2017-10-23T06:10:20.661Z,10.47
2017-10-23T06:11:34.815Z,10.44
2017-10-23T06:12:36.697Z,10.41
2017-10-23T06:13:38.584Z,10.41
2017-10-23T06:14:40.470Z,10.45
2017-10-23T06:15:42.291Z,10.53
2017-10-23T06:16:44.116Z,10.55
2017-10-23T06:17:46.000Z,10.56
2017-10-23T06:18:47.885Z,10.53
2017-10-23T06:19:49.773Z,10.60
2017-10-23T06:21:03.972Z,10.63
2017-10-23T06:22:05.867Z,10.42
2017-10-23T06:23:07.752Z,10.51
2017-10-23T06:24:09.636Z,10.44
2017-10-23T06:25:11.459Z,10.55
2017-10-23T06:26:13.284Z,10.63
2017-10-23T06:27:15.172Z,10.70
2017-10-23T06:28:17.056Z,10.66
2017-10-23T06:29:18.941Z,10.63
2017-10-23T06:30:33.097Z,10.74
2017-10-23T06:31:34.982Z,10.71
2017-10-23T06:32:36.868Z,10.85
2017-10-23T06:33:38.754Z,10.81
2017-10-23T06:34:40.585Z,10.76
2017-10-23T06:35:42.408Z,10.67
2017-10-23T06:36:44.296Z,10.61
2017-10-23T06:37:46.180Z,10.71
2017-10-23T06:38:48.068Z,10.71
2017-10-23T06:40:02.226Z,10.73
2017-10-23T06:41:04.112Z,10.71
2017-10-23T06:42:06.401Z,10.74
2017-10-23T06:43:08.255Z,10.73
2017-10-23T06:44:10.102Z,10.74
2017-10-23T06:45:11.922Z,10.82
2017-10-23T06:46:13.821Z,10.85
2017-10-23T06:47:15.704Z,10.89
2017-10-23T06:48:17.587Z,11.07
2017-10-23T06:49:31.793Z,11.10
2017-10-23T06:50:33.679Z,10.99
2017-10-23T06:51:35.569Z,10.94
2017-10-23T06:52:37.463Z,10.97
2017-10-23T06:53:39.287Z,10.88
2017-10-23T06:54:41.111Z,10.99
2017-10-23T06:55:43.001Z,10.96
2017-10-23T06:56:44.886Z,10.96
2017-10-23T06:57:46.785Z,11.02
2017-10-23T06:59:00.957Z,10.91
2017-10-23T07:00:02.845Z,11.06
2017-10-23T07:01:04.727Z,11.04
2017-10-23T07:02:06.618Z,11.04
2017-10-23T07:03:08.444Z,11.10
2017-10-23T07:04:10.268Z,11.24
2017-10-23T07:05:12.154Z,11.33
2017-10-23T07:06:14.052Z,11.27
2017-10-23T07:07:15.931Z,11.25
2017-10-23T07:08:30.096Z,11.28
2017-10-23T07:09:31.983Z,11.10
2017-10-23T07:10:33.884Z,11.15
2017-10-23T07:11:35.762Z,11.14
2017-10-23T07:12:37.579Z,11.15
2017-10-23T07:13:39.402Z,11.19
2017-10-23T07:14:41.289Z,11.18
2017-10-23T07:15:43.180Z,11.24
2017-10-23T07:16:45.068Z,11.27
2017-10-23T07:17:59.231Z,11.04
2017-10-23T07:19:01.116Z,11.09
2017-10-23T07:20:03.016Z,11.03
2017-10-23T07:21:04.913Z,10.97
2017-10-23T07:22:06.742Z,11.10
2017-10-23T07:23:08.572Z,11.14
2017-10-23T07:24:10.461Z,11.21
2017-10-23T07:25:12.345Z,11.25
2017-10-23T07:26:14.234Z,11.33
2017-10-23T07:27:28.394Z,11.37
2017-10-23T07:28:30.281Z,11.39
2017-10-23T07:29:32.172Z,11.32
2017-10-23T07:30:34.071Z,11.37
2017-10-23T07:31:35.895Z,11.28
2017-10-23T07:32:37.725Z,11.37
2017-10-23T07:33:39.558Z,11.27
2017-10-23T07:34:41.373Z,11.39
2017-10-23T07:35:43.198Z,11.37
2017-10-23T07:36:57.358Z,11.33
2017-10-23T07:37:59.242Z,11.19
2017-10-23T07:39:01.128Z,11.17
2017-10-23T07:40:03.020Z,11.22
2017-10-23T07:41:04.850Z,11.14
2017-10-23T07:42:06.670Z,11.10
2017-10-23T07:43:08.556Z,11.19
2017-10-23T07:44:10.442Z,11.21
2017-10-23T07:45:12.336Z,11.24
2017-10-23T07:46:26.495Z,11.19
2017-10-23T07:47:28.395Z,11.25
2017-10-23T07:48:30.272Z,11.33
2017-10-23T07:49:32.162Z,11.24
2017-10-23T07:50:33.989Z,11.32
2017-10-23T07:51:35.814Z,11.40
2017-10-23T07:52:37.708Z,11.40
2017-10-23T07:53:39.591Z,11.42
2017-10-23T07:54:41.486Z,11.32
2017-10-23T07:55:55.684Z,11.40
2017-10-23T07:56:57.602Z,11.40
2017-10-23T07:57:59.536Z,11.39
2017-10-23T07:59:01.455Z,11.29
2017-10-23T08:00:03.285Z,11.40
2017-10-23T08:01:05.104Z,11.33
2017-10-23T08:02:06.997Z,11.22
2017-10-23T08:03:08.880Z,11.27
2017-10-23T08:04:10.765Z,11.35
2017-10-23T08:05:24.934Z,11.36
2017-10-23T08:06:26.824Z,11.39
2017-10-23T08:07:28.707Z,11.42
2017-10-23T08:08:30.609Z,11.32
2017-10-23T08:09:32.434Z,11.28
2017-10-23T08:10:34.260Z,11.35
2017-10-23T08:11:36.151Z,11.47
2017-10-23T08:12:38.046Z,11.37
2017-10-23T08:13:39.935Z,11.55
2017-10-23T08:14:54.105Z,11.61
2017-10-23T08:15:56.377Z,11.61
2017-10-23T08:16:58.316Z,11.67
2017-10-23T08:18:00.180Z,11.61
2017-10-23T08:19:02.028Z,11.75
2017-10-23T08:20:03.876Z,11.73
2017-10-23T08:21:05.746Z,11.79
2017-10-23T08:22:07.654Z,11.79
2017-10-23T08:23:09.556Z,11.78
2017-10-23T08:24:23.701Z,11.76
2017-10-23T08:25:25.591Z,11.70
2017-10-23T08:26:27.839Z,11.69
2017-10-23T08:27:30.097Z,11.60
2017-10-23T08:28:31.961Z,11.72
2017-10-23T08:29:33.784Z,11.72
2017-10-23T08:30:35.682Z,11.62
2017-10-23T08:31:37.558Z,11.62
2017-10-23T08:32:39.449Z,11.72
2017-10-23T08:33:53.617Z,11.75
2017-10-23T08:34:55.438Z,11.73
2017-10-23T08:35:57.272Z,11.82
2017-10-23T08:36:59.161Z,11.79
2017-10-23T08:38:01.054Z,11.94
2017-10-23T08:39:02.918Z,12.02
2017-10-23T08:40:04.743Z,12.20
2017-10-23T08:41:06.565Z,12.12
2017-10-23T08:42:08.451Z,12.19
2017-10-23T08:43:22.675Z,12.16
2017-10-23T08:44:24.565Z,12.29
2017-10-23T08:45:26.452Z,12.42
2017-10-23T08:46:28.351Z,12.41
2017-10-23T08:47:30.179Z,12.42
2017-10-23T08:48:32.053Z,12.60
2017-10-23T08:49:33.984Z,12.65
2017-10-23T08:50:35.871Z,12.64
2017-10-23T08:51:37.758Z,12.57
2017-10-23T08:52:51.929Z,12.62
2017-10-23T08:53:53.814Z,12.57
2017-10-23T08:54:55.704Z,12.60
2017-10-23T08:55:57.594Z,12.68
2017-10-23T08:56:59.419Z,12.65
2017-10-23T08:58:01.245Z,12.59
2017-10-23T08:59:03.133Z,12.59
2017-10-23T09:00:05.020Z,12.45
2017-10-23T09:01:06.915Z,12.47
2017-10-23T09:02:21.069Z,12.38
2017-10-23T09:03:22.956Z,12.31
2017-10-23T09:04:24.843Z,12.31
2017-10-23T09:05:26.730Z,12.20
2017-10-23T09:06:28.556Z,12.14
2017-10-23T09:07:30.380Z,12.04
2017-10-23T09:08:32.269Z,12.14
2017-10-23T09:09:34.156Z,12.14
2017-10-23T09:10:36.042Z,12.10
2017-10-23T09:11:50.203Z,12.19
2017-10-23T09:12:52.087Z,12.17
2017-10-23T09:13:53.971Z,12.24
2017-10-23T09:14:55.859Z,12.29
2017-10-23T09:15:57.686Z,12.31
2017-10-23T09:16:59.510Z,12.16
2017-10-23T09:18:01.394Z,12.16
2017-10-23T09:19:03.282Z,12.10
2017-10-23T09:20:05.167Z,12.14
2017-10-23T09:21:19.326Z,12.17
2017-10-23T09:22:21.212Z,12.16
2017-10-23T09:23:23.096Z,12.32
2017-10-23T09:24:24.983Z,12.29
2017-10-23T09:25:26.809Z,12.45
2017-10-23T09:26:28.637Z,12.46
2017-10-23T09:27:30.524Z,12.49
2017-10-23T09:28:32.408Z,12.42
2017-10-23T09:29:34.291Z,12.42
2017-10-23T09:30:48.461Z,12.39
2017-10-23T09:31:50.347Z,12.47
2017-10-23T09:32:52.232Z,12.39
2017-10-23T09:33:54.313Z,12.53
2017-10-23T09:34:56.141Z,12.56
2017-10-23T09:35:57.965Z,12.68
2017-10-23T09:36:59.850Z,12.77
2017-10-23T09:38:01.738Z,12.72
2017-10-23T09:39:03.633Z,12.70
2017-10-23T09:40:17.793Z,12.87
2017-10-23T09:41:19.684Z,13.00
2017-10-23T09:42:21.567Z,13.01
2017-10-23T09:43:23.467Z,13.07
2017-10-23T09:44:25.281Z,13.12
2017-10-23T09:45:27.106Z,13.17
2017-10-23T09:46:28.992Z,13.22
2017-10-23T09:47:30.876Z,13.23
2017-10-23T09:48:32.764Z,13.23
2017-10-23T09:49:46.923Z,13.28
2017-10-23T09:50:48.808Z,13.29
2017-10-23T09:51:50.694Z,13.28
2017-10-23T09:52:52.584Z,13.25
2017-10-23T09:53:54.410Z,13.29
2017-10-23T09:54:56.234Z,13.29
2017-10-23T09:55:58.119Z,13.36
2017-10-23T09:57:00.007Z,13.23
2017-10-23T09:58:01.892Z,13.20
2017-10-23T09:59:16.050Z,13.23
2017-10-23T10:00:17.943Z,13.44
2017-10-23T10:01:19.823Z,13.51
2017-10-23T10:02:21.723Z,13.36
2017-10-23T10:03:23.551Z,13.30
2017-10-23T10:04:25.376Z,13.29
2017-10-23T10:05:27.263Z,13.14
2017-10-23T10:06:29.148Z,13.17
2017-10-23T10:07:31.045Z,12.87
2017-10-23T10:08:45.208Z,12.78
2017-10-23T10:09:47.090Z,12.75
2017-10-23T10:10:48.976Z,12.83
2017-10-23T10:11:50.859Z,12.85
2017-10-23T10:12:52.687Z,12.79
2017-10-23T10:13:54.513Z,12.95
2017-10-23T10:14:56.400Z,12.90
2017-10-23T10:15:58.286Z,12.93
2017-10-23T10:17:00.172Z,12.92
2017-10-23T10:18:14.330Z,12.92
2017-10-23T10:19:16.215Z,13.03
2017-10-23T10:20:18.098Z,13.12
2017-10-23T10:21:19.984Z,13.14
2017-10-23T10:22:21.807Z,13.23
2017-10-23T10:23:23.639Z,13.26
2017-10-23T10:24:25.519Z,13.19
2017-10-23T10:25:27.406Z,13.22
2017-10-23T10:26:29.291Z,13.01
2017-10-23T10:27:43.450Z,12.97
2017-10-23T10:28:45.335Z,12.93
2017-10-23T10:29:47.220Z,12.95
2017-10-23T10:30:49.106Z,13.04
2017-10-23T10:31:50.935Z,12.97
2017-10-23T10:32:52.764Z,12.97
2017-10-23T10:33:54.647Z,12.93
2017-10-23T10:34:56.540Z,12.95
2017-10-23T10:35:58.436Z,12.87
2017-10-23T10:37:12.595Z,12.74
2017-10-23T10:38:14.481Z,12.86
2017-10-23T10:39:16.383Z,12.93
2017-10-23T10:40:18.270Z,12.97
2017-10-23T10:41:20.095Z,12.95
2017-10-23T10:42:21.921Z,12.90
2017-10-23T10:43:23.806Z,13.07
2017-10-23T10:44:25.690Z,13.19
2017-10-23T10:45:27.612Z,13.08
2017-10-23T10:46:41.817Z,13.14
2017-10-23T10:47:43.704Z,12.96
2017-10-23T10:48:45.590Z,12.92
2017-10-23T10:49:47.474Z,12.72
2017-10-23T10:50:49.305Z,12.64
2017-10-23T10:51:51.130Z,12.68
2017-10-23T10:52:53.012Z,12.72
2017-10-23T10:53:54.896Z,12.70
2017-10-23T10:54:56.784Z,12.68
2017-10-23T10:56:10.948Z,12.62
2017-10-23T10:57:12.828Z,12.72
2017-10-23T10:58:14.712Z,12.86
2017-10-23T10:59:16.601Z,12.74
2017-10-23T11:00:18.428Z,12.71
2017-10-23T11:01:20.256Z,12.77
2017-10-23T11:02:22.143Z,12.64
2017-10-23T11:03:24.027Z,12.67
2017-10-23T11:04:25.913Z,12.67
2017-10-23T11:05:40.085Z,12.74
2017-10-23T11:06:41.970Z,12.79
2017-10-23T11:07:43.866Z,13.07
2017-10-23T11:08:45.769Z,13.11
2017-10-23T11:09:47.593Z,13.11
2017-10-23T11:10:49.418Z,13.10
2017-10-23T11:11:51.301Z,13.26
2017-10-23T11:12:53.186Z,13.17
2017-10-23T11:13:55.075Z,13.19
2017-10-23T11:15:09.236Z,13.19
2017-10-23T11:16:11.120Z,13.30
2017-10-23T11:17:13.006Z,13.23
2017-10-23T11:18:14.894Z,13.28
2017-10-23T11:19:16.726Z,13.28
2017-10-23T11:20:18.553Z,13.25
2017-10-23T11:21:20.376Z,13.23
2017-10-23T11:22:22.199Z,13.05
2017-10-23T11:23:24.023Z,12.96
2017-10-23T11:24:38.186Z,12.93
2017-10-23T11:25:40.074Z,13.01
2017-10-23T11:26:41.958Z,13.12
2017-10-23T11:27:43.851Z,13.11
2017-10-23T11:28:45.677Z,13.17
2017-10-23T11:29:47.503Z,13.08
2017-10-23T11:30:49.388Z,13.17
2017-10-23T11:31:51.287Z,13.11
2017-10-23T11:32:53.172Z,13.12
2017-10-23T11:34:07.324Z,13.25
2017-10-23T11:35:09.163Z,13.23
2017-10-23T11:36:10.986Z,13.25
2017-10-23T11:37:12.817Z,13.41
2017-10-23T11:38:14.643Z,13.32
2017-10-23T11:39:16.533Z,13.33
2017-10-23T11:40:18.419Z,13.30
2017-10-23T11:41:20.282Z,13.14
2017-10-23T11:42:22.106Z,13.11
2017-10-23T11:43:36.264Z,13.01
2017-10-23T11:44:38.146Z,12.90
2017-10-23T11:45:40.043Z,12.93
2017-10-23T11:46:41.943Z,13.07
2017-10-23T11:47:43.771Z,13.17
2017-10-23T11:48:45.607Z,13.22
2017-10-23T11:49:47.489Z,13.23
2017-10-23T11:50:49.377Z,13.29
2017-10-23T11:51:51.274Z,13.33
2017-10-23T11:53:05.436Z,13.48
2017-10-23T11:54:07.332Z,13.69
2017-10-23T11:55:09.216Z,13.69
2017-10-23T11:56:11.105Z,13.79
2017-10-23T11:57:12.931Z,13.78
2017-10-23T11:58:14.760Z,13.91
2017-10-23T11:59:16.653Z,13.91
2017-10-23T12:00:18.538Z,14.14
2017-10-23T12:01:20.422Z,14.25
2017-10-23T12:02:34.585Z,14.36
2017-10-23T12:03:36.475Z,14.27
2017-10-23T12:04:38.356Z,14.12
2017-10-23T12:05:40.283Z,14.07
2017-10-23T12:06:42.076Z,13.99
2017-10-23T12:07:43.903Z,14.02
2017-10-23T12:08:45.786Z,14.17
2017-10-23T12:09:47.672Z,14.12
2017-10-23T12:10:49.578Z,14.02
2017-10-23T12:12:03.846Z,13.99
2017-10-23T12:13:05.784Z,14.00
2017-10-23T12:14:07.675Z,13.97
2017-10-23T12:15:09.665Z,13.85
2017-10-23T12:16:11.539Z,13.95
2017-10-23T12:17:13.378Z,13.85
2017-10-23T12:18:15.270Z,13.75
2017-10-23T12:19:17.196Z,13.70
2017-10-23T12:20:19.156Z,13.70
2017-10-23T12:21:33.340Z,13.71
2017-10-23T12:22:35.209Z,13.84
2017-10-23T12:23:37.092Z,13.82
2017-10-23T12:24:38.979Z,13.81
2017-10-23T12:25:40.895Z,13.71
2017-10-23T12:26:42.772Z,13.60
2017-10-23T12:27:44.658Z,13.48
2017-10-23T12:28:46.544Z,13.41
2017-10-23T12:29:48.429Z,13.32
2017-10-23T12:31:02.958Z,13.41
2017-10-23T12:32:04.992Z,13.33
2017-10-23T12:33:06.950Z,13.41
2017-10-23T12:34:08.920Z,13.39
2017-10-23T12:35:10.749Z,13.44
2017-10-23T12:36:12.577Z,13.66
2017-10-23T12:37:14.466Z,13.62
2017-10-23T12:38:16.350Z,13.84
2017-10-23T12:39:18.356Z,13.79
2017-10-23T12:40:32.599Z,14.04
2017-10-23T12:41:34.502Z,14.04
2017-10-23T12:42:36.450Z,14.04
2017-10-23T12:43:38.335Z,13.99
2017-10-23T12:44:40.161Z,13.95
2017-10-23T12:45:41.988Z,14.02
2017-10-23T12:46:43.873Z,13.99
2017-10-23T12:47:46.042Z,13.85
2017-10-23T12:48:47.989Z,13.85
2017-10-23T12:50:02.224Z,14.10
2017-10-23T12:51:04.106Z,14.20
2017-10-23T12:52:05.992Z,14.20
2017-10-23T12:53:07.877Z,14.07
2017-10-23T12:54:09.703Z,13.82
2017-10-23T12:55:11.529Z,13.89
2017-10-23T12:56:13.413Z,13.85
2017-10-23T12:57:15.300Z,13.78
2017-10-23T12:58:17.362Z,13.81
2017-10-23T12:59:31.823Z,13.67
2017-10-23T13:00:33.776Z,13.63
2017-10-23T13:01:35.669Z,13.57
2017-10-23T13:02:37.578Z,13.48
2017-10-23T13:03:39.424Z,13.46
2017-10-23T13:04:41.277Z,13.36
2017-10-23T13:05:43.164Z,13.25
2017-10-23T13:06:45.053Z,13.28
2017-10-23T13:07:46.967Z,13.32
2017-10-23T13:09:01.209Z,13.28
2017-10-23T13:10:03.097Z,13.22
2017-10-23T13:11:05.064Z,13.19
2017-10-23T13:12:06.949Z,13.28
2017-10-23T13:13:08.818Z,13.32
2017-10-23T13:14:10.820Z,13.33
2017-10-23T13:15:12.725Z,13.30
2017-10-23T13:16:14.622Z,13.25
2017-10-23T13:17:16.533Z,13.28
2017-10-23T13:18:31.086Z,13.17
2017-10-23T13:19:33.043Z,13.12
2017-10-23T13:20:34.930Z,13.26
2017-10-23T13:21:36.815Z,13.25
2017-10-23T13:22:38.640Z,13.29
2017-10-23T13:23:40.558Z,13.25
2017-10-23T13:24:42.484Z,13.12
2017-10-23T13:25:44.762Z,12.95
2017-10-23T13:26:46.703Z,12.90
2017-10-23T13:28:00.864Z,12.95
2017-10-23T13:29:02.747Z,12.95
2017-10-23T13:30:04.997Z,12.92
2017-10-23T13:31:06.881Z,12.74
2017-10-23T13:32:08.706Z,12.77
2017-10-23T13:33:10.541Z,12.71
2017-10-23T13:34:12.428Z,12.65